Time;durP1;ratioP1;P1;durP2;ratioP2;P2;SDS_P1;SDS_P2;PMS_P1;PMS_P2;Temp;Humidity;BMP_temperature;BMP_pressure;BME280_temperature;BME280_humidity;BME280_pressure;Samples;Min_cycle;Max_cycle;Signal;HPM_P1;HPM_P2
2022/09/16 00:02:31;;;;;;;15.93;10.38;;;12.10;99.90;;;;;;6228070;23;20038;-88
2022/09/16 00:05:25;;;;;;;15.98;11.38;;;12.00;99.90;;;;;;6250124;23;20028;-86
2022/09/16 00:08:13;;;;;;;23.92;11.15;;;12.00;99.90;;;;;;6227207;23;20024;-87
2022/09/16 00:11:01;;;;;;;16.92;11.07;;;12.00;99.90;;;;;;6247438;23;20131;-87
2022/09/16 00:13:49;;;;;;;15.30;11.48;;;12.00;99.90;;;;;;6247676;23;20039;-87
2022/09/16 00:16:36;;;;;;;14.30;11.45;;;12.00;99.90;;;;;;6227079;23;20020;-86
2022/09/16 00:19:23;;;;;;;30.13;12.05;;;12.00;99.90;;;;;;6248684;23;20020;-87
2022/09/16 00:22:11;;;;;;;15.07;10.23;;;12.10;99.90;;;;;;6248111;23;20335;-86
2022/09/16 00:24:58;;;;;;;11.98;10.23;;;12.10;99.90;;;;;;6225944;23;20028;-86
2022/09/16 00:27:48;;;;;;;13.95;10.52;;;12.10;99.90;;;;;;6248233;23;20408;-86
2022/09/16 00:30:38;;;;;;;16.38;10.63;;;12.20;99.90;;;;;;6249295;23;20115;-87
2022/09/16 00:33:25;;;;;;;14.15;9.73;;;12.20;76.50;;;;;;6246712;23;20031;-87
2022/09/16 00:36:15;;;;;;;17.85;10.57;;;12.20;37.00;;;;;;6248861;23;20051;-87
2022/09/16 00:39:03;;;;;;;16.42;9.82;;;12.20;28.70;;;;;;6248219;23;20298;-87
2022/09/16 00:41:50;;;;;;;12.27;9.82;;;12.10;18.90;;;;;;6246844;23;20038;-88
2022/09/16 00:44:55;;;;;;;17.20;10.93;;;12.20;28.70;;;;;;6226832;23;20028;-88
2022/09/16 00:47:51;;;;;;;22.40;11.02;;;12.20;42.40;;;;;;6246320;23;20047;-87
2022/09/16 00:50:44;;;;;;;15.02;10.77;;;12.10;54.60;;;;;;6227518;23;20416;-86
2022/09/16 00:53:43;;;;;;;16.95;10.82;;;12.20;55.80;;;;;;6226626;23;20400;-87
2022/09/16 00:56:34;;;;;;;16.38;10.25;;;12.10;61.10;;;;;;6248889;23;20087;-87
2022/09/16 00:59:34;;;;;;;14.90;11.05;;;12.10;92.70;;;;;;6246812;23;20749;-87
2022/09/16 01:02:22;;;;;;;15.98;11.00;;;12.10;99.90;;;;;;6248504;23;20055;-88
2022/09/16 01:05:14;;;;;;;16.63;11.27;;;12.10;99.90;;;;;;6228848;23;20047;-87
2022/09/16 01:08:04;;;;;;;14.95;11.38;;;12.10;99.90;;;;;;6225881;23;20024;-88
2022/09/16 01:10:51;;;;;;;16.75;10.82;;;12.10;99.90;;;;;;6248700;23;20028;-87
2022/09/16 01:13:42;;;;;;;17.25;10.98;;;12.10;99.90;;;;;;6226605;23;20034;-87
2022/09/16 01:16:36;;;;;;;14.13;10.75;;;12.10;99.90;;;;;;6228664;23;20028;-87
2022/09/16 01:19:42;;;;;;;15.52;10.90;;;12.10;99.90;;;;;;6227621;23;20020;-88
2022/09/16 01:23:03;;;;;;;23.27;11.75;;;12.10;99.90;;;;;;6247853;23;20028;-88
2022/09/16 01:26:16;;;;;;;16.50;10.68;;;12.10;99.90;;;;;;6227440;23;20024;-87
2022/09/16 01:29:25;;;;;;;19.67;11.93;;;12.10;99.90;;;;;;6246930;23;20035;-89
2022/09/16 01:32:30;;;;;;;16.05;11.20;;;12.10;99.90;;;;;;6227813;23;20070;-87
2022/09/16 01:35:21;;;;;;;16.63;11.45;;;12.10;99.90;;;;;;6247391;23;20020;-87
2022/09/16 01:38:23;;;;;;;16.55;11.00;;;12.10;99.90;;;;;;6226345;23;20028;-89
2022/09/16 01:41:47;;;;;;;15.03;11.50;;;12.00;99.90;;;;;;6225732;23;20099;-88
2022/09/16 01:45:09;;;;;;;21.88;11.00;;;12.00;99.90;;;;;;6228439;23;20104;-88
2022/09/16 01:47:59;;;;;;;15.70;11.63;;;11.90;99.90;;;;;;6227775;23;20020;-87
2022/09/16 01:51:01;;;;;;;13.88;10.90;;;11.90;99.90;;;;;;6247117;23;20035;-87
2022/09/16 01:54:11;;;;;;;16.50;10.73;;;11.80;99.90;;;;;;6247130;23;20432;-87
2022/09/16 01:57:13;;;;;;;15.45;11.52;;;11.70;99.90;;;;;;6226438;23;20320;-88
2022/09/16 02:00:06;;;;;;;17.83;11.82;;;11.60;99.90;;;;;;6226852;23;20084;-85
2022/09/16 02:02:56;;;;;;;16.63;11.93;;;11.50;1.00;;;;;;6247483;23;20103;-87
2022/09/16 02:05:54;;;;;;;17.23;12.55;;;11.50;99.90;;;;;;6228953;23;20062;-86
2022/09/16 02:08:48;;;;;;;22.38;13.30;;;11.50;1.00;;;;;;6245985;23;20039;-88
2022/09/16 02:11:37;;;;;;;19.50;13.15;;;11.60;40.40;;;;;;6227994;23;20131;-88
2022/09/16 02:14:28;;;;;;;17.20;12.07;;;11.60;81.80;;;;;;6247477;23;20025;-87
2022/09/16 02:17:20;;;;;;;15.52;11.43;;;11.60;1.00;;;;;;6248800;23;20031;-87
2022/09/16 02:20:12;;;;;;;16.85;11.85;;;11.50;1.00;;;;;;6246402;23;20024;-87
2022/09/16 02:23:04;;;;;;;18.35;11.70;;;11.40;1.00;;;;;;6228033;23;20446;-87
2022/09/16 02:25:53;;;;;;;;;;;11.40;1.00;;;;;;6261689;23;20103;-88
2022/09/16 02:28:44;;;;;;;20.80;12.07;;;11.30;1.00;;;;;;6262429;23;19921;-87
2022/09/16 02:31:36;;;;;;;16.80;11.85;;;11.20;1.00;;;;;;6244930;22;20024;-84
2022/09/16 02:34:36;;;;;;;18.92;11.88;;;11.10;99.80;;;;;;6266199;22;20173;-86
2022/09/16 02:37:32;;;;;;;17.40;12.00;;;11.10;99.90;;;;;;6247990;23;20020;-89
2022/09/16 02:40:25;;;;;;;19.75;12.50;;;11.10;99.90;;;;;;6225554;23;20431;-87
2022/09/16 02:43:13;;;;;;;16.00;12.48;;;11.10;99.90;;;;;;6247970;23;20316;-86
2022/09/16 02:46:21;;;;;;;19.30;13.32;;;11.00;99.90;;;;;;6246658;23;20030;-85
2022/09/16 02:49:46;;;;;;;19.17;12.52;;;11.00;1.00;;;;;;6249015;23;20024;-86
2022/09/16 02:52:48;;;;;;;19.58;12.70;;;11.00;1.00;;;;;;6247408;23;20024;-85
2022/09/16 02:55:59;;;;;;;21.88;14.15;;;11.00;99.90;;;;;;6246825;23;20038;-86
2022/09/16 02:58:47;;;;;;;17.13;12.88;;;11.00;99.90;;;;;;6246268;23;20020;-86
2022/09/16 03:01:40;;;;;;;18.05;12.82;;;11.00;99.90;;;;;;6252079;23;20315;-86
2022/09/16 03:04:29;;;;;;;19.90;12.27;;;11.00;99.90;;;;;;6248706;23;20028;-85
2022/09/16 03:07:19;;;;;;;20.85;13.15;;;10.90;99.90;;;;;;6224547;23;20257;-87
2022/09/16 03:10:10;;;;;;;18.75;11.93;;;10.90;1.00;;;;;;6246757;23;20032;-86
2022/09/16 03:13:11;;;;;;;15.10;10.80;;;11.00;1.00;;;;;;6224518;23;20582;-86
2022/09/16 03:16:22;;;;;;;21.63;11.45;;;11.10;1.00;;;;;;6225265;23;20346;-87
2022/09/16 03:19:35;;;;;;;22.95;13.32;;;11.20;1.00;;;;;;6248565;23;20717;-86
2022/09/16 03:22:31;;;;;;;19.63;12.23;;;11.30;1.00;;;;;;6225998;23;20024;-86
2022/09/16 03:25:47;;;;;;;16.70;11.68;;;11.30;99.90;;;;;;6226710;23;20024;-87
2022/09/16 03:28:46;;;;;;;21.27;11.60;;;11.40;99.90;;;;;;6245300;23;20024;-87
2022/09/16 03:31:37;;;;;;;17.75;10.90;;;11.40;1.00;;;;;;6247998;23;20024;-87
2022/09/16 03:34:45;;;;;;;12.57;9.23;;;11.40;99.90;;;;;;6247228;22;20020;-86
2022/09/16 03:37:35;;;;;;;12.98;8.50;;;11.40;99.90;;;;;;6226938;23;20030;-87
2022/09/16 03:40:25;;;;;;;20.88;10.18;;;11.40;1.00;;;;;;6247233;23;20024;-87
2022/09/16 03:43:16;;;;;;;12.00;8.43;;;11.40;99.90;;;;;;6247936;22;20028;-86
2022/09/16 03:46:09;;;;;;;15.10;8.50;;;11.50;48.90;;;;;;6247963;23;20024;-86
2022/09/16 03:48:57;;;;;;;14.80;9.65;;;11.50;1.00;;;;;;6247312;22;20429;-86
2022/09/16 03:51:44;;;;;;;16.60;10.23;;;11.60;1.00;;;;;;6247356;23;20028;-85
2022/09/16 03:54:33;;;;;;;16.27;10.57;;;11.60;1.00;;;;;;6247330;23;20047;-86
2022/09/16 03:57:20;;;;;;;17.20;11.80;;;11.60;1.00;;;;;;6246492;23;20031;-87
2022/09/16 04:00:08;;;;;;;16.60;12.15;;;11.60;97.80;;;;;;6246561;23;20030;-87
2022/09/16 04:02:55;;;;;;;15.98;11.23;;;11.50;99.90;;;;;;6224537;23;20047;-87
2022/09/16 04:05:42;;;;;;;15.38;11.15;;;11.60;99.90;;;;;;6248958;23;20024;-86
2022/09/16 04:08:30;;;;;;;13.75;11.65;;;11.50;99.90;;;;;;6245962;23;20029;-88
2022/09/16 04:11:18;;;;;;;16.13;12.02;;;11.50;99.90;;;;;;6247999;23;20323;-86
2022/09/16 04:14:06;;;;;;;24.98;13.95;;;11.50;99.90;;;;;;6247735;23;20047;-87
2022/09/16 04:16:54;;;;;;;16.15;12.70;;;11.50;99.90;;;;;;6224804;23;20035;-87
2022/09/16 04:19:41;;;;;;;21.75;13.90;;;11.60;1.00;;;;;;6248469;22;20032;-87
2022/09/16 04:22:29;;;;;;;23.70;15.30;;;11.50;1.00;;;;;;6226277;23;20027;-86
2022/09/16 04:25:16;;;;;;;21.77;15.10;;;11.60;1.00;;;;;;6247104;23;20028;-87
2022/09/16 04:28:03;;;;;;;24.23;15.43;;;11.50;14.00;;;;;;6246886;23;20032;-86
2022/09/16 04:31:11;;;;;;;22.35;15.18;;;11.50;99.90;;;;;;6228851;23;20024;-83
2022/09/16 04:34:01;;;;;;;17.52;14.23;;;11.50;99.90;;;;;;6246839;23;20285;-84
2022/09/16 04:36:50;;;;;;;20.25;13.30;;;11.50;99.90;;;;;;6246522;23;20054;-84
2022/09/16 04:39:38;;;;;;;19.77;13.63;;;11.60;99.90;;;;;;6244247;23;20020;-84
2022/09/16 04:42:25;;;;;;;21.42;14.50;;;11.60;99.90;;;;;;6246969;22;20020;-83
2022/09/16 04:45:16;;;;;;;18.65;13.75;;;11.50;99.90;;;;;;6242955;23;20034;-82
2022/09/16 04:48:03;;;;;;;21.27;13.63;;;11.50;1.00;;;;;;6249675;23;20042;-83
2022/09/16 04:50:53;;;;;;;22.52;12.82;;;11.50;1.00;;;;;;6246932;23;20030;-84
2022/09/16 04:53:43;;;;;;;21.17;14.07;;;11.50;1.00;;;;;;6245937;23;20026;-85
2022/09/16 04:56:31;;;;;;;19.42;12.95;;;11.50;1.00;;;;;;6226204;23;20020;-84
2022/09/16 04:59:19;;;;;;;21.52;13.65;;;11.40;1.00;;;;;;6228316;23;20020;-85
2022/09/16 05:02:06;;;;;;;20.55;12.38;;;11.40;1.00;;;;;;6247513;23;20424;-84
2022/09/16 05:04:53;;;;;;;21.95;13.55;;;11.40;99.90;;;;;;6249140;23;20024;-84
2022/09/16 05:07:40;;;;;;;18.15;12.90;;;11.50;1.00;;;;;;6248841;23;20104;-84
2022/09/16 05:10:27;;;;;;;17.35;12.52;;;11.40;51.50;;;;;;6247132;23;20324;-84
2022/09/16 05:13:17;;;;;;;16.13;12.25;;;11.40;99.90;;;;;;6248217;23;20020;-85
2022/09/16 05:16:20;;;;;;;21.73;14.10;;;11.50;99.90;;;;;;6225983;23;20020;-85
2022/09/16 05:19:14;;;;;;;18.70;13.02;;;11.50;1.00;;;;;;6226215;23;20036;-84
2022/09/16 05:22:05;;;;;;;20.05;12.57;;;11.50;43.20;;;;;;6227443;23;20020;-84
2022/09/16 05:24:53;;;;;;;18.50;13.35;;;11.40;90.70;;;;;;6247251;23;20422;-84
2022/09/16 05:27:40;;;;;;;18.58;12.63;;;11.40;99.90;;;;;;6246442;23;20107;-84
2022/09/16 05:30:27;;;;;;;24.17;14.68;;;11.40;99.90;;;;;;6247798;23;20028;-85
2022/09/16 05:33:14;;;;;;;24.02;16.13;;;11.40;1.00;;;;;;6223317;23;20024;-85
2022/09/16 05:36:06;;;;;;;25.52;17.25;;;11.40;99.90;;;;;;6246060;23;20091;-84
2022/09/16 05:38:54;;;;;;;36.22;18.33;;;11.40;99.90;;;;;;6247554;22;20043;-84
2022/09/16 05:42:03;;;;;;;32.58;16.20;;;11.40;99.90;;;;;;6225900;23;20397;-84
2022/09/16 05:44:50;;;;;;;25.85;15.13;;;11.40;99.90;;;;;;6223823;23;20038;-85
2022/09/16 05:47:38;;;;;;;21.92;14.60;;;11.40;99.90;;;;;;6246540;23;20035;-83
2022/09/16 05:50:27;;;;;;;17.95;12.73;;;11.30;99.90;;;;;;6226428;23;20024;-85
2022/09/16 05:53:14;;;;;;;21.27;14.52;;;11.30;1.00;;;;;;6225999;23;20024;-85
2022/09/16 05:56:09;;;;;;;29.33;16.35;;;11.30;1.00;;;;;;6224908;23;20035;-83
2022/09/16 05:59:00;;;;;;;26.88;15.65;;;11.40;99.90;;;;;;6229975;23;20024;-83
2022/09/16 06:01:49;;;;;;;24.23;16.30;;;11.40;99.90;;;;;;6226364;23;20055;-84
2022/09/16 06:04:39;;;;;;;24.08;15.60;;;11.40;1.00;;;;;;6226438;23;20312;-85
2022/09/16 06:07:31;;;;;;;20.90;13.48;;;11.40;1.00;;;;;;6227246;23;20028;-83
2022/09/16 06:10:18;;;;;;;20.67;13.07;;;11.40;1.00;;;;;;6224237;23;20423;-82
2022/09/16 06:13:26;;;;;;;27.95;12.25;;;11.40;1.00;;;;;;6246917;23;20032;-84
2022/09/16 06:19:50;;;;;;;20.27;10.75;;;11.20;1.00;;;;;;6247483;23;20052;-84
2022/09/16 06:22:47;;;;;;;18.35;11.10;;;11.20;1.00;;;;;;6226055;23;20403;-83
2022/09/16 06:25:39;;;;;;;20.13;12.57;;;11.20;99.90;;;;;;6223203;23;20099;-83
2022/09/16 06:28:29;;;;;;;26.88;13.63;;;11.20;99.90;;;;;;6226921;23;20035;-86
2022/09/16 06:31:23;;;;;;;29.02;14.95;;;11.20;96.50;;;;;;6224771;23;20032;-85
2022/09/16 06:34:17;;;;;;;22.02;14.23;;;11.20;1.00;;;;;;6223893;23;20102;-87
2022/09/16 06:37:05;;;;;;;24.45;14.18;;;11.20;99.90;;;;;;6227424;23;20380;-85
2022/09/16 06:39:53;;;;;;;27.73;14.45;;;11.20;1.00;;;;;;6227350;23;20030;-85
2022/09/16 06:43:05;;;;;;;30.50;14.38;;;11.10;1.00;;;;;;6248863;23;20024;-85
2022/09/16 06:46:04;;;;;;;26.98;13.63;;;11.10;1.00;;;;;;6226319;23;20332;-87
2022/09/16 06:49:01;;;;;;;29.08;14.05;;;11.10;1.00;;;;;;6224889;23;20028;-87
2022/09/16 06:52:34;;;;;;;23.70;13.68;;;11.10;3.10;;;;;;6243633;23;20020;-86
2022/09/16 06:55:55;;;;;;;25.60;14.57;;;11.10;21.20;;;;;;6246339;23;20024;-85
2022/09/16 06:59:43;;;;;;;24.27;14.73;;;11.20;99.90;;;;;;6230199;23;20016;-87
2022/09/16 07:02:44;;;;;;;;;;;;;;;;;;;;;
2022/09/16 07:05:31;;;;;;;19.52;13.02;;;11.10;99.90;;;;;;6249007;23;20056;-85
2022/09/16 07:08:18;;;;;;;24.33;13.95;;;11.10;99.90;;;;;;6225473;23;20035;-85
2022/09/16 07:11:09;;;;;;;26.70;14.23;;;11.10;99.90;;;;;;6225406;23;20391;-86
2022/09/16 07:14:01;;;;;;;22.15;13.32;;;11.10;99.90;;;;;;6226973;23;20032;-86
2022/09/16 07:16:51;;;;;;;31.45;15.30;;;11.10;99.90;;;;;;6224442;23;20040;-88
2022/09/16 07:19:43;;;;;;;34.38;15.65;;;11.20;99.90;;;;;;6226532;23;20024;-89
2022/09/16 07:22:31;;;;;;;27.27;13.57;;;11.10;99.90;;;;;;6227345;23;20028;-88
2022/09/16 07:25:18;;;;;;;27.85;14.75;;;11.20;99.90;;;;;;6253755;23;20502;-87
2022/09/16 07:28:05;;;;;;;21.55;13.48;;;11.10;99.90;;;;;;6250814;23;20023;-86
2022/09/16 07:30:53;;;;;;;30.65;14.30;;;11.10;99.90;;;;;;6226336;23;20099;-85
2022/09/16 07:33:48;;;;;;;23.83;13.95;;;11.10;99.90;;;;;;6225409;23;20020;-86
2022/09/16 07:36:43;;;;;;;27.00;15.93;;;11.10;99.90;;;;;;6246408;23;20070;-86
2022/09/16 07:43:07;;;;;;;33.33;15.88;;;11.10;99.90;;;;;;6227139;23;20352;-87
2022/09/16 07:46:09;;;;;;;29.83;14.82;;;11.10;99.90;;;;;;6226596;23;20356;-86
2022/09/16 07:49:01;;;;;;;33.25;14.35;;;11.10;99.90;;;;;;6226458;23;20020;-86
2022/09/16 07:51:51;;;;;;;24.33;15.02;;;11.20;99.90;;;;;;6226220;23;20024;-85
2022/09/16 07:54:43;;;;;;;22.55;14.93;;;11.20;99.90;;;;;;6225811;23;20457;-86
2022/09/16 07:57:30;;;;;;;22.02;14.82;;;11.30;99.90;;;;;;6246301;23;20710;-87
2022/09/16 08:00:24;;;;;;;30.95;14.32;;;11.30;99.90;;;;;;6244663;23;20024;-84
2022/09/16 08:03:16;;;;;;;24.00;13.85;;;11.30;99.90;;;;;;6225064;23;20024;-85
2022/09/16 08:06:14;;;;;;;21.95;14.05;;;11.30;99.90;;;;;;6225292;23;20079;-85
2022/09/16 08:09:04;;;;;;;26.10;14.60;;;11.30;1.00;;;;;;6225500;23;20257;-84
2022/09/16 08:12:14;;;;;;;21.45;13.30;;;11.40;1.00;;;;;;6229850;23;20024;-83
2022/09/16 08:15:10;;;;;;;25.95;14.73;;;11.40;99.90;;;;;;6244697;23;20031;-84
2022/09/16 08:18:05;;;;;;;25.77;15.05;;;11.40;1.00;;;;;;6245669;23;20675;-85
2022/09/16 08:21:00;;;;;;;25.77;15.07;;;11.60;1.00;;;;;;6225736;23;20183;-84
2022/09/16 08:23:50;;;;;;;25.55;15.23;;;11.70;1.00;;;;;;6226528;23;20024;-85
2022/09/16 08:26:39;;;;;;;25.85;14.80;;;12.20;1.00;;;;;;6222974;23;20194;-86
2022/09/16 08:29:28;;;;;;;23.20;14.10;;;12.40;1.00;;;;;;6248485;23;20656;-87
2022/09/16 08:32:21;;;;;;;26.95;13.15;;;12.50;1.00;;;;;;6225757;23;20028;-86
2022/09/16 08:35:10;;;;;;;19.48;12.20;;;12.40;99.90;;;;;;6226588;23;20272;-86
2022/09/16 08:37:59;;;;;;;13.45;11.57;;;12.20;34.00;;;;;;6247709;23;20025;-88
2022/09/16 08:40:48;;;;;;;17.23;11.50;;;12.00;92.70;;;;;;6247983;23;20024;-85
2022/09/16 08:43:47;;;;;;;23.20;11.77;;;12.00;1.00;;;;;;6227057;23;20020;-86
2022/09/16 08:46:45;;;;;;;15.07;11.38;;;11.90;99.90;;;;;;6246821;23;20024;-87
2022/09/16 08:49:39;;;;;;;15.05;11.20;;;11.90;99.90;;;;;;6250598;22;20031;-85
2022/09/16 08:52:37;;;;;;;17.45;10.90;;;12.00;99.90;;;;;;6248876;23;20027;-85
2022/09/16 08:55:39;;;;;;;19.23;10.45;;;11.90;99.90;;;;;;6247426;23;20113;-85
2022/09/16 08:58:44;;;;;;;17.40;11.40;;;11.90;99.90;;;;;;6246542;23;20374;-86
2022/09/16 09:01:48;;;;;;;22.33;12.05;;;11.90;1.00;;;;;;6225087;23;20016;-85
2022/09/16 09:04:39;;;;;;;17.52;12.65;;;12.10;98.50;;;;;;6247215;23;20497;-85
2022/09/16 09:08:09;;;;;;;15.20;11.38;;;12.10;99.90;;;;;;6245828;23;20106;-86
2022/09/16 09:11:14;;;;;;;18.52;12.88;;;12.20;99.90;;;;;;6246870;23;20043;-86
2022/09/16 09:14:26;;;;;;;22.80;12.98;;;12.10;99.90;;;;;;6244936;23;20288;-88
2022/09/16 09:17:13;;;;;;;16.60;10.77;;;12.00;99.90;;;;;;6244361;23;20028;-86
2022/09/16 09:20:03;;;;;;;18.02;11.32;;;11.90;99.90;;;;;;6245684;23;20385;-85
2022/09/16 09:23:14;;;;;;;16.80;11.13;;;12.00;1.00;;;;;;6225312;23;20431;-86
2022/09/16 09:26:31;;;;;;;18.17;11.57;;;12.00;99.90;;;;;;6224479;23;20497;-86
2022/09/16 09:29:28;;;;;;;17.50;11.20;;;11.80;99.90;;;;;;6227061;23;20032;-87
2022/09/16 09:32:53;;;;;;;15.20;10.98;;;11.90;99.90;;;;;;6246242;23;20154;-85
2022/09/16 09:36:18;;;;;;;18.80;10.13;;;12.00;99.90;;;;;;6212219;23;20089;-87
2022/09/16 09:39:27;;;;;;;21.52;11.07;;;12.20;35.30;;;;;;6224579;23;20024;-84
2022/09/16 09:42:48;;;;;;;12.93;10.10;;;12.50;99.90;;;;;;6245800;23;20086;-84
2022/09/16 09:45:43;;;;;;;11.55;8.65;;;12.50;99.90;;;;;;6209817;23;20169;-84
2022/09/16 09:48:44;;;;;;;10.80;8.30;;;12.40;99.90;;;;;;6230055;23;20024;-82
2022/09/16 09:51:36;;;;;;;11.80;8.82;;;12.50;1.00;;;;;;6206120;23;20024;-84
2022/09/16 09:54:34;;;;;;;16.60;6.07;;;12.60;99.90;;;;;;6248455;23;20106;-86
2022/09/16 09:57:38;;;;;;;10.00;5.72;;;12.70;99.90;;;;;;6247509;23;20099;-84
2022/09/16 10:00:25;;;;;;;10.15;4.82;;;12.70;99.90;;;;;;6224018;23;20020;-85
2022/09/16 10:03:17;;;;;;;8.20;4.40;;;12.70;99.90;;;;;;6244937;23;20027;-87
2022/09/16 10:06:09;;;;;;;18.20;6.75;;;12.60;1.00;;;;;;6245866;23;20027;-85
2022/09/16 10:08:57;;;;;;;9.98;4.72;;;12.80;1.00;;;;;;6224678;23;20597;-84
2022/09/16 10:11:51;;;;;;;5.40;4.03;;;13.50;1.00;;;;;;6222796;23;20036;-81
2022/09/16 10:14:38;;;;;;;8.88;4.35;;;13.80;99.90;;;;;;6245599;23;20020;-81
2022/09/16 10:17:29;;;;;;;5.28;4.43;;;13.70;99.90;;;;;;6244911;23;20446;-87
2022/09/16 10:20:43;;;;;;;7.65;5.13;;;13.70;99.90;;;;;;6225103;23;20035;-88
2022/09/16 10:23:31;;;;;;;6.68;4.60;;;13.80;99.90;;;;;;6248669;23;20031;-89
2022/09/16 10:26:21;;;;;;;6.90;4.30;;;13.80;87.50;;;;;;6238439;23;20103;-88
2022/09/16 10:29:16;;;;;;;9.70;5.50;;;13.70;20.60;;;;;;6250339;23;20103;-88
2022/09/16 10:32:08;;;;;;;12.18;4.68;;;13.70;1.00;;;;;;6247628;23;20058;-88
2022/09/16 10:34:55;;;;;;;9.10;5.05;;;13.70;1.00;;;;;;6247589;23;20024;-86
2022/09/16 10:38:11;;;;;;;7.00;4.15;;;13.70;1.00;;;;;;6247152;23;20024;-88
2022/09/16 10:41:31;;;;;;;6.55;4.43;;;13.80;6.30;;;;;;6224299;23;20083;-88
2022/09/16 10:44:27;;;;;;;5.75;4.03;;;13.70;1.00;;;;;;6248724;23;20086;-87
2022/09/16 10:47:19;;;;;;;4.15;3.60;;;13.30;1.00;;;;;;6223934;23;20031;-89
2022/09/16 10:50:17;;;;;;;7.65;4.25;;;13.00;1.00;;;;;;6252902;23;20098;-91
2022/09/16 10:53:21;;;;;;;6.22;3.95;;;12.90;1.00;;;;;;6246683;23;20028;-87
2022/09/16 10:56:23;;;;;;;8.05;3.65;;;12.80;1.00;;;;;;6239988;23;20079;-87
2022/09/16 10:59:16;;;;;;;5.82;3.33;;;12.80;1.00;;;;;;6261251;23;20024;-87
2022/09/16 11:02:28;;;;;;;9.15;3.65;;;13.00;1.00;;;;;;6239363;23;20032;-87
2022/09/16 11:05:22;;;;;;;5.25;3.67;;;13.20;1.00;;;;;;6246430;22;20055;-85
2022/09/16 11:08:28;;;;;;;5.80;3.45;;;13.30;1.00;;;;;;6245262;23;20031;-86
2022/09/16 11:11:49;;;;;;;7.25;3.33;;;13.20;1.00;;;;;;6246152;22;20020;-86
2022/09/16 11:14:42;;;;;;;9.45;3.78;;;13.10;1.00;;;;;;6234550;23;20030;-90
2022/09/16 11:18:00;;;;;;;8.82;3.85;;;13.10;1.00;;;;;;6248867;23;20099;-87
2022/09/16 11:20:50;;;;;;;8.25;3.50;;;13.00;1.00;;;;;;6245961;23;20024;-87
2022/09/16 11:24:26;;;;;;;10.25;3.65;;;13.00;1.00;;;;;;6226171;23;20028;-86
2022/09/16 11:27:38;;;;;;;5.93;3.40;;;13.10;1.00;;;;;;6245422;23;20043;-84
2022/09/16 11:30:32;;;;;;;9.18;2.85;;;13.00;1.00;;;;;;6228595;23;20055;-86
2022/09/16 11:33:57;;;;;;;9.88;3.22;;;13.00;1.00;;;;;;6221700;23;20020;-85
2022/09/16 11:36:48;;;;;;;;;;;13.30;1.00;;;;;;6124891;23;20025;-86
2022/09/16 11:39:45;;;;;;;5.68;2.40;;;13.70;1.00;;;;;;6227124;22;19977;-86
2022/09/16 11:42:34;;;;;;;10.60;2.60;;;14.00;1.00;;;;;;6223987;23;20024;-86
2022/09/16 11:45:50;;;;;;;5.43;2.70;;;14.20;1.00;;;;;;6225527;23;20024;-85
2022/09/16 11:48:51;;;;;;;7.47;2.53;;;14.60;99.90;;;;;;6221175;23;20047;-85
2022/09/16 11:52:09;;;;;;;5.37;2.13;;;14.90;99.90;;;;;;6245138;23;20028;-85
2022/09/16 11:55:15;;;;;;;5.28;2.03;;;15.10;99.90;;;;;;6224491;23;20162;-85
2022/09/16 11:58:23;;;;;;;5.75;2.00;;;15.00;99.90;;;;;;6225382;23;20490;-86
2022/09/16 12:01:18;;;;;;;6.65;2.25;;;14.80;99.90;;;;;;6224492;23;20131;-86
2022/09/16 12:05:15;;;;;;;;;;;;;;;;;;;;;
2022/09/16 12:08:37;;;;;;;5.78;1.70;;;15.20;99.90;;;;;;6126146;23;20018;-86
2022/09/16 12:12:20;;;;;;;6.30;1.80;;;15.80;99.90;;;;;;6125543;23;20022;-86
2022/09/16 12:15:19;;;;;;;5.40;1.50;;;16.30;99.90;;;;;;6124406;23;20036;-86
2022/09/16 12:18:55;;;;;;;2.92;1.20;;;16.40;99.90;;;;;;5982232;23;20553;-85
2022/09/16 12:21:47;;;;;;;5.50;1.75;;;16.20;99.90;;;;;;5982646;23;20028;-85
2022/09/16 12:25:05;;;;;;;4.57;1.98;;;16.00;99.90;;;;;;5981497;23;20032;-85
2022/09/16 12:28:22;;;;;;;6.57;1.73;;;15.70;99.90;;;;;;5982070;23;20064;-87
2022/09/16 12:31:32;;;;;;;8.30;1.80;;;15.40;99.90;;;;;;5980461;24;20039;-87
2022/09/16 12:34:42;;;;;;;3.58;1.63;;;15.30;99.90;;;;;;5955270;24;20032;-87
2022/09/16 12:37:38;;;;;;;7.15;1.83;;;15.20;99.90;;;;;;6097204;23;20130;-87
2022/09/16 12:40:40;;;;;;;5.80;1.80;;;15.30;99.90;;;;;;6094743;23;20037;-86
2022/09/16 12:43:45;;;;;;;2.20;1.42;;;15.50;99.90;;;;;;6107214;23;20105;-89
2022/09/16 12:46:38;;;;;;;7.20;1.60;;;15.50;99.90;;;;;;6246119;23;20098;-84
2022/09/16 12:50:15;;;;;;;6.15;1.92;;;15.30;99.90;;;;;;6221893;23;20036;-86
2022/09/16 12:53:48;;;;;;;12.05;2.20;;;15.00;99.90;;;;;;6124980;23;20037;-88
2022/09/16 12:57:04;;;;;;;6.40;2.38;;;15.00;99.90;;;;;;6225291;23;20020;-87
2022/09/16 13:00:07;;;;;;;7.55;2.17;;;15.10;99.90;;;;;;6246653;23;20044;-88
2022/09/16 13:02:57;;;;;;;;;;;15.00;99.90;;;;;;6223540;23;20324;-86
2022/09/16 13:05:47;;;;;;;10.35;2.97;;;15.00;99.90;;;;;;6223607;23;19926;-86
2022/09/16 13:08:35;;;;;;;9.75;2.55;;;15.10;99.90;;;;;;6246940;23;20024;-87
2022/09/16 13:11:26;;;;;;;7.40;2.00;;;15.20;99.90;;;;;;6229276;23;20028;-89
2022/09/16 13:14:45;;;;;;;7.70;2.50;;;15.20;99.90;;;;;;6250787;23;20415;-89
2022/09/16 13:17:38;;;;;;;6.07;1.90;;;15.60;99.90;;;;;;6246896;23;20071;-89
2022/09/16 13:20:34;;;;;;;9.73;2.17;;;16.20;99.00;;;;;;6226951;23;20301;-89
2022/09/16 13:23:32;;;;;;;6.88;1.60;;;17.60;83.40;;;;;;6225567;23;20020;-91
2022/09/16 13:26:20;;;;;;;4.00;1.23;;;20.10;48.80;;;;;;6247341;23;20028;-90
2022/09/16 13:29:32;;;;;;;2.45;1.05;;;21.60;17.90;;;;;;6245962;23;20038;-89
2022/09/16 13:32:36;;;;;;;1.90;1.00;;;21.40;1.00;;;;;;6226555;23;20042;-90
2022/09/16 13:35:30;;;;;;;4.28;1.48;;;20.90;1.00;;;;;;6227567;23;20027;-90
2022/09/16 13:38:17;;;;;;;4.35;1.35;;;22.10;1.00;;;;;;6247355;23;20020;-89
2022/09/16 13:41:05;;;;;;;6.18;1.35;;;22.50;1.00;;;;;;6248507;23;20103;-90
2022/09/16 13:43:52;;;;;;;2.95;1.00;;;23.20;1.00;;;;;;6246554;23;20103;-91
2022/09/16 13:46:40;;;;;;;3.53;1.45;;;23.70;1.00;;;;;;6225703;23;20175;-89
2022/09/16 13:49:32;;;;;;;7.28;2.05;;;24.40;1.00;;;;;;6246567;23;20118;-91
2022/09/16 13:52:41;;;;;;;3.13;1.38;;;23.80;1.00;;;;;;6248157;23;20394;-90
2022/09/16 13:55:32;;;;;;;2.67;1.40;;;23.70;1.00;;;;;;6245732;23;20030;-87
2022/09/16 13:58:44;;;;;;;5.68;1.42;;;22.90;1.00;;;;;;6248256;23;20059;-88
2022/09/16 14:01:51;;;;;;;4.97;1.27;;;22.20;1.00;;;;;;6248212;23;20020;-90
2022/09/16 14:05:19;;;;;;;4.53;1.42;;;21.00;1.00;;;;;;6247684;23;20024;-89
2022/09/16 14:08:22;;;;;;;5.05;1.40;;;19.00;1.00;;;;;;6247783;23;20056;-87
2022/09/16 14:11:48;;;;;;;7.53;2.20;;;17.50;1.00;;;;;;6250266;23;20373;-90
2022/09/16 14:14:36;;;;;;;4.78;1.60;;;17.40;1.00;;;;;;6246994;23;20198;-90
2022/09/16 14:17:46;;;;;;;5.68;1.67;;;19.20;1.00;;;;;;6232039;23;20129;-89
2022/09/16 14:20:38;;;;;;;4.88;1.80;;;19.90;1.00;;;;;;6225947;23;20268;-91
2022/09/16 14:23:26;;;;;;;4.18;1.30;;;20.20;1.00;;;;;;6226262;23;20020;-91
2022/09/16 14:26:22;;;;;;;2.58;1.42;;;21.00;1.00;;;;;;6249537;23;20024;-89
2022/09/16 14:29:10;;;;;;;3.08;1.60;;;21.90;1.00;;;;;;6227385;23;20035;-90
2022/09/16 14:32:02;;;;;;;7.38;1.65;;;21.90;1.00;;;;;;6248383;23;20099;-92
2022/09/16 14:34:51;;;;;;;5.10;1.83;;;22.50;1.00;;;;;;6226626;23;20056;-88
2022/09/16 14:37:48;;;;;;;3.13;1.63;;;23.70;1.00;;;;;;6220144;23;20021;-92
2022/09/16 14:40:56;;;;;;;3.60;1.52;;;22.50;1.00;;;;;;6199780;23;20075;-90
2022/09/16 14:51:57;;;;;;;7.10;1.83;;;19.00;1.00;;;;;;6097237;23;20037;-91
2022/09/16 14:55:33;;;;;;;;;;;;;;;;;;;;;
2022/09/16 14:58:23;;;;;;;4.80;1.23;;;19.00;1.00;;;;;;6123346;23;20022;-90
2022/09/16 15:01:17;;;;;;;16.25;2.58;;;20.00;1.00;;;;;;6126990;23;20097;-91
2022/09/16 15:04:19;;;;;;;4.00;1.30;;;21.20;1.00;;;;;;6124985;23;20045;-89
2022/09/16 15:07:13;;;;;;;7.15;1.67;;;21.40;1.00;;;;;;6127063;23;20089;-87
2022/09/16 15:10:03;;;;;;;7.43;1.75;;;21.80;1.00;;;;;;6126836;23;20062;-89
2022/09/16 15:12:53;;;;;;;3.05;1.70;;;20.90;1.00;;;;;;6127397;23;20030;-91
2022/09/16 15:15:48;;;;;;;8.00;1.88;;;20.80;1.00;;;;;;6126237;23;20022;-91
2022/09/16 15:18:37;;;;;;;4.22;1.55;;;20.70;1.00;;;;;;6107513;23;20026;-92
2022/09/16 15:21:31;;;;;;;9.55;1.65;;;20.50;1.00;;;;;;6125189;23;20032;-88
2022/09/16 15:24:30;;;;;;;3.63;1.35;;;21.10;1.00;;;;;;6125769;23;20085;-90
2022/09/16 15:27:28;;;;;;;3.78;1.20;;;21.70;1.00;;;;;;6126574;23;20033;-88
2022/09/16 15:30:24;;;;;;;3.15;1.30;;;21.90;1.00;;;;;;6194167;23;20024;-84
2022/09/16 15:33:39;;;;;;;3.38;1.40;;;22.00;1.00;;;;;;6216142;23;20055;-87
2022/09/16 15:36:43;;;;;;;5.07;1.50;;;21.20;1.00;;;;;;6226774;23;20020;-87